createdAt,value
2019-05-05T00:00:52.578Z,99.90
2019-05-05T00:03:39.869Z,99.90
2019-05-05T00:06:26.408Z,99.90
2019-05-05T00:09:07.126Z,99.90
2019-05-05T00:11:54.690Z,99.90
2019-05-05T00:20:20.532Z,99.90
2019-05-05T00:23:00.494Z,99.90
2019-05-05T00:25:46.719Z,99.90
2019-05-05T00:28:26.919Z,99.90
2019-05-05T00:31:15.042Z,99.90
2019-05-05T00:33:54.826Z,99.90
2019-05-05T00:36:21.198Z,99.90
2019-05-05T00:39:08.370Z,99.90
2019-05-05T00:41:47.963Z,99.90
2019-05-05T00:44:35.248Z,99.90
2019-05-05T00:47:18.205Z,99.90
2019-05-05T00:52:36.169Z,99.90
2019-05-05T00:55:44.335Z,99.90
2019-05-05T00:58:25.246Z,99.90
2019-05-05T01:01:31.335Z,99.90
2019-05-05T01:06:55.442Z,99.90
2019-05-05T01:09:35.257Z,99.90
2019-05-05T01:12:21.600Z,99.90
2019-05-05T01:15:02.034Z,99.90
2019-05-05T01:17:29.672Z,99.90
2019-05-05T01:20:03.334Z,99.90
2019-05-05T01:22:24.968Z,99.90
2019-05-05T01:24:52.725Z,99.90
2019-05-05T01:27:39.058Z,99.90
2019-05-05T01:36:08.636Z,99.90
2019-05-05T01:38:55.300Z,99.90
2019-05-05T01:41:41.713Z,99.90
2019-05-05T01:44:08.315Z,99.90
2019-05-05T01:46:35.322Z,99.90
2019-05-05T01:51:51.007Z,99.90
2019-05-05T01:54:31.110Z,99.90
2019-05-05T01:57:17.338Z,99.90
2019-05-05T01:59:57.298Z,99.90
2019-05-05T02:02:44.845Z,99.90
2019-05-05T02:05:12.136Z,99.90
2019-05-05T02:07:58.422Z,99.90
2019-05-05T02:10:25.481Z,99.90
2019-05-05T02:15:45.225Z,99.90
2019-05-05T02:18:31.629Z,99.90
2019-05-05T02:21:17.887Z,99.90
2019-05-05T02:23:58.230Z,99.90
2019-05-05T02:26:26.534Z,99.90
2019-05-05T02:32:27.193Z,99.90
2019-05-05T02:35:16.332Z,99.90
2019-05-05T02:37:56.386Z,99.90
2019-05-05T02:40:24.517Z,99.90
2019-05-05T02:42:51.258Z,99.90
2019-05-05T02:45:59.135Z,99.90
2019-05-05T02:48:26.798Z,99.90
2019-05-05T02:51:15.391Z,99.90
2019-05-05T02:54:04.433Z,99.90
2019-05-05T02:56:54.185Z,99.90
2019-05-05T03:02:43.527Z,99.90
2019-05-05T03:05:24.705Z,99.90
2019-05-05T03:08:10.928Z,99.90
2019-05-05T03:10:53.564Z,99.90
2019-05-05T03:19:53.688Z,99.90
2019-05-05T03:22:20.441Z,99.90
2019-05-05T03:25:06.760Z,99.90
2019-05-05T03:27:47.132Z,99.90
2019-05-05T03:30:35.623Z,99.90
2019-05-05T03:33:05.108Z,99.90
2019-05-05T03:35:50.823Z,99.90
2019-05-05T03:38:37.358Z,99.90
2019-05-05T03:44:24.191Z,99.90
2019-05-05T03:47:03.962Z,99.90
2019-05-05T03:49:30.519Z,99.90
2019-05-05T03:52:16.751Z,99.90
2019-05-05T03:54:57.010Z,99.90
2019-05-05T03:57:44.460Z,99.90
2019-05-05T04:00:45.446Z,99.90
2019-05-05T04:03:54.076Z,99.90
2019-05-05T04:06:40.437Z,99.90
2019-05-05T04:09:20.050Z,99.90
2019-05-05T04:15:08.183Z,99.90
2019-05-05T04:17:50.223Z,99.90
2019-05-05T04:23:17.800Z,99.90
2019-05-05T04:26:04.082Z,99.90
2019-05-05T04:28:45.003Z,99.90
2019-05-05T04:31:31.525Z,99.90
2019-05-05T04:34:19.696Z,99.90
2019-05-05T04:37:05.930Z,99.90
2019-05-05T04:39:34.219Z,99.90
2019-05-05T04:44:29.543Z,99.90
2019-05-05T04:58:41.634Z,99.90
2019-05-05T05:01:07.912Z,99.90
2019-05-05T05:03:54.380Z,99.90
2019-05-05T05:07:00.410Z,99.90
2019-05-05T05:09:43.379Z,99.90
2019-05-05T05:12:29.663Z,99.90
2019-05-05T05:15:09.400Z,99.90
2019-05-05T05:20:46.369Z,99.90
2019-05-05T05:23:34.210Z,99.90
2019-05-05T05:26:14.302Z,99.90
2019-05-05T05:29:00.862Z,99.90
2019-05-05T05:31:27.453Z,99.90
2019-05-05T05:34:14.867Z,99.90
2019-05-05T05:36:55.153Z,99.90
2019-05-05T05:42:25.737Z,99.90
2019-05-05T05:48:19.528Z,99.90
2019-05-05T05:51:05.875Z,99.90
2019-05-05T05:53:54.263Z,99.90
2019-05-05T05:56:34.374Z,99.90
2019-05-05T05:59:20.697Z,99.90
2019-05-05T06:02:11.518Z,99.90
2019-05-05T06:04:49.107Z,99.90
2019-05-05T06:07:15.600Z,99.90
2019-05-05T06:09:55.574Z,99.90
2019-05-05T06:12:41.811Z,99.90
2019-05-05T06:15:21.770Z,99.90
2019-05-05T06:17:48.076Z,99.90
2019-05-05T06:20:34.576Z,99.90
2019-05-05T06:23:00.995Z,99.90
2019-05-05T06:25:27.552Z,99.90
2019-05-05T06:27:54.180Z,99.90
2019-05-05T06:30:24.216Z,99.90
2019-05-05T06:32:50.679Z,99.90
2019-05-05T06:35:17.184Z,99.90
2019-05-05T06:38:04.698Z,99.90
2019-05-05T06:41:07.096Z,99.90
2019-05-05T06:44:07.173Z,99.90
2019-05-05T06:46:53.813Z,99.90
2019-05-05T06:49:34.551Z,99.90
2019-05-05T06:52:21.027Z,99.90
2019-05-05T06:55:03.626Z,99.90
2019-05-05T06:57:49.409Z,99.90
2019-05-05T07:00:29.751Z,99.90
2019-05-05T07:02:56.134Z,99.90
2019-05-05T07:05:43.783Z,99.90
2019-05-05T07:08:24.535Z,99.90
2019-05-05T07:11:04.358Z,99.50
2019-05-05T07:13:50.690Z,99.10
2019-05-05T07:16:30.184Z,98.00
2019-05-05T07:19:16.390Z,97.30
2019-05-05T07:21:57.139Z,95.80
2019-05-05T07:24:43.687Z,96.70
2019-05-05T07:27:24.307Z,97.30
2019-05-05T07:30:10.854Z,96.40
2019-05-05T07:32:50.983Z,94.40
2019-05-05T07:35:34.503Z,92.90
2019-05-05T07:43:45.248Z,91.10
2019-05-05T07:46:25.631Z,90.00
2019-05-05T07:49:13.792Z,87.60
2019-05-05T07:51:54.725Z,87.00
2019-05-05T07:54:41.065Z,89.30
2019-05-05T07:57:20.658Z,87.80
2019-05-05T07:59:47.069Z,85.00
2019-05-05T08:02:33.859Z,82.60
2019-05-05T08:05:14.585Z,81.80
2019-05-05T08:07:41.012Z,79.40
2019-05-05T08:10:20.777Z,80.10
2019-05-05T08:13:07.040Z,79.20
2019-05-05T08:15:59.109Z,78.50
2019-05-05T08:18:56.754Z,79.00
2019-05-05T08:21:24.036Z,80.20
2019-05-05T08:27:20.975Z,82.00
2019-05-05T08:30:07.304Z,81.60
2019-05-05T08:32:49.320Z,80.40
2019-05-05T08:35:35.566Z,80.70
2019-05-05T08:38:04.362Z,79.80
2019-05-05T08:43:18.501Z,78.90
2019-05-05T08:45:44.880Z,80.30
2019-05-05T08:48:14.046Z,77.90
2019-05-05T08:53:18.322Z,75.40
2019-05-05T08:58:44.766Z,71.70
2019-05-05T09:01:30.980Z,70.60
2019-05-05T09:03:57.492Z,68.80
2019-05-05T09:06:43.951Z,67.80
2019-05-05T09:09:10.689Z,67.40
2019-05-05T09:11:37.165Z,66.10
2019-05-05T09:14:04.161Z,66.40
2019-05-05T09:16:33.518Z,66.30
2019-05-05T09:22:14.134Z,65.90
2019-05-05T09:28:23.771Z,64.60
2019-05-05T09:31:10.577Z,62.00
2019-05-05T09:33:50.242Z,62.10
2019-05-05T09:36:36.457Z,61.90
2019-05-05T09:39:16.272Z,61.40
2019-05-05T09:42:04.115Z,60.30
2019-05-05T09:44:54.129Z,58.80
2019-05-05T09:47:34.470Z,59.10
2019-05-05T09:50:20.949Z,57.70
2019-05-05T09:53:00.813Z,58.10
2019-05-05T09:55:46.965Z,58.70
2019-05-05T09:58:13.853Z,57.40
2019-05-05T10:00:41.754Z,57.20
2019-05-05T10:03:08.114Z,57.70
2019-05-05T10:05:54.350Z,57.70
2019-05-05T10:08:34.178Z,56.70
2019-05-05T10:14:01.367Z,56.20
2019-05-05T10:17:07.375Z,56.30
2019-05-05T10:19:47.152Z,57.50
2019-05-05T10:22:34.299Z,56.90
2019-05-05T10:25:20.610Z,55.90
2019-05-05T10:27:47.736Z,56.10
2019-05-05T10:32:58.230Z,53.10
2019-05-05T10:35:24.521Z,52.10
2019-05-05T10:38:10.767Z,52.10
2019-05-05T10:40:37.130Z,51.70
2019-05-05T10:43:23.885Z,51.80
2019-05-05T10:46:10.117Z,52.10
2019-05-05T10:48:50.459Z,52.10
2019-05-05T10:51:36.838Z,52.30
2019-05-05T10:54:04.064Z,51.10
2019-05-05T10:56:31.584Z,50.90
2019-05-05T10:59:17.806Z,50.80
2019-05-05T11:01:44.310Z,52.10
2019-05-05T11:04:33.546Z,53.10
2019-05-05T11:07:14.577Z,53.00
2019-05-05T11:09:41.391Z,52.30
2019-05-05T11:12:07.675Z,51.70
2019-05-05T11:14:54.464Z,52.80
2019-05-05T11:17:24.614Z,54.30
2019-05-05T11:19:50.559Z,54.60
2019-05-05T11:22:17.017Z,54.20
2019-05-05T11:25:05.134Z,54.40
2019-05-05T11:27:45.302Z,54.40
2019-05-05T11:30:27.311Z,54.60
2019-05-05T11:39:34.046Z,53.20
2019-05-05T11:42:04.227Z,52.40
2019-05-05T11:44:49.731Z,52.40
2019-05-05T11:47:29.603Z,53.10
2019-05-05T11:50:15.855Z,52.30
2019-05-05T11:52:56.018Z,51.70
2019-05-05T11:55:44.324Z,52.40
2019-05-05T11:58:24.906Z,53.10
2019-05-05T12:01:13.274Z,53.50
2019-05-05T12:03:53.643Z,54.00
2019-05-05T12:06:39.850Z,52.90
2019-05-05T12:09:21.200Z,48.70
2019-05-05T12:12:09.973Z,46.30
2019-05-05T12:14:36.590Z,47.40
2019-05-05T12:17:44.254Z,47.10
2019-05-05T12:20:50.486Z,47.20
2019-05-05T12:23:30.660Z,45.90
2019-05-05T12:26:36.747Z,46.50
2019-05-05T12:29:16.542Z,46.40
2019-05-05T12:34:30.821Z,47.80
2019-05-05T12:36:57.270Z,47.40
2019-05-05T12:45:07.095Z,44.80
2019-05-05T12:48:08.942Z,45.80
2019-05-05T12:50:55.220Z,44.50
2019-05-05T12:53:41.656Z,43.70
2019-05-05T12:56:27.954Z,44.60
2019-05-05T12:59:09.240Z,45.00
2019-05-05T13:04:40.199Z,43.40
2019-05-05T13:07:26.494Z,42.90
2019-05-05T13:09:54.505Z,44.30
2019-05-05T13:12:41.033Z,46.10
2019-05-05T13:15:07.535Z,46.90
2019-05-05T13:17:54.198Z,47.00
2019-05-05T13:20:40.652Z,47.70
2019-05-05T13:26:33.491Z,47.50
2019-05-05T13:29:19.670Z,47.80
2019-05-05T13:32:00.022Z,47.40
2019-05-05T13:34:46.289Z,46.40
2019-05-05T13:37:14.140Z,46.40
2019-05-05T13:42:29.227Z,47.40
2019-05-05T13:45:10.669Z,48.20
2019-05-05T13:47:37.342Z,48.90
2019-05-05T13:50:43.463Z,49.70
2019-05-05T13:53:23.716Z,50.20
2019-05-05T13:56:12.565Z,50.10
2019-05-05T13:58:51.535Z,50.50
2019-05-05T14:01:17.998Z,50.40
2019-05-05T14:04:04.617Z,50.70
2019-05-05T14:06:46.312Z,51.30
2019-05-05T14:09:32.921Z,50.80
2019-05-05T14:12:14.733Z,49.90
2019-05-05T14:15:00.977Z,49.50
2019-05-05T14:17:40.949Z,49.50
2019-05-05T14:20:11.854Z,49.50
2019-05-05T14:22:35.775Z,50.40
2019-05-05T14:28:23.483Z,51.90
2019-05-05T14:31:06.629Z,52.20
2019-05-05T14:39:34.150Z,51.80
2019-05-05T14:42:21.160Z,52.20
2019-05-05T14:45:01.454Z,52.30
2019-05-05T14:47:41.509Z,52.10
2019-05-05T14:50:27.832Z,52.10
2019-05-05T14:53:07.530Z,52.20
2019-05-05T14:55:53.885Z,52.50
2019-05-05T14:58:33.571Z,52.60
2019-05-05T15:01:19.852Z,52.50
2019-05-05T15:04:04.294Z,53.00
2019-05-05T15:12:29.077Z,51.90
2019-05-05T15:15:08.662Z,51.80
2019-05-05T15:17:54.946Z,51.30
2019-05-05T15:20:36.595Z,51.80
2019-05-05T15:23:24.050Z,51.80
2019-05-05T15:26:04.928Z,52.10
2019-05-05T15:29:00.855Z,52.20
2019-05-05T15:31:19.373Z,52.20
2019-05-05T15:34:05.591Z,52.20
2019-05-05T15:36:33.433Z,51.50
2019-05-05T15:39:20.131Z,51.50
2019-05-05T15:42:00.401Z,51.70
2019-05-05T15:44:27.049Z,51.70
2019-05-05T15:47:06.594Z,51.50
2019-05-05T15:49:53.361Z,51.50
2019-05-05T15:52:35.121Z,51.90
2019-05-05T15:55:21.506Z,51.80
2019-05-05T15:58:00.991Z,52.10
2019-05-05T16:00:47.269Z,52.20
2019-05-05T16:03:13.802Z,52.30
2019-05-05T16:06:00.045Z,52.20
2019-05-05T16:08:39.764Z,52.30
2019-05-05T16:11:26.953Z,51.90
2019-05-05T16:14:09.511Z,52.20
2019-05-05T16:16:49.792Z,52.20
2019-05-05T16:19:55.940Z,52.40
2019-05-05T16:22:43.684Z,52.00
2019-05-05T16:28:12.077Z,54.80
2019-05-05T16:30:58.400Z,56.10
2019-05-05T16:33:37.965Z,61.70
2019-05-05T16:36:06.311Z,64.90
2019-05-05T16:38:46.186Z,67.50
2019-05-05T16:41:34.018Z,69.40
2019-05-05T16:44:15.722Z,71.20
2019-05-05T16:47:04.521Z,72.20
2019-05-05T16:49:30.595Z,72.60
2019-05-05T16:55:23.875Z,74.50
2019-05-05T17:01:14.814Z,74.50
2019-05-05T17:04:09.236Z,75.20
2019-05-05T17:06:29.315Z,75.90
2019-05-05T17:09:15.566Z,76.80
2019-05-05T17:12:18.171Z,77.30
2019-05-05T17:15:24.041Z,77.90
2019-05-05T17:18:10.373Z,78.40
2019-05-05T17:23:51.066Z,79.20
2019-05-05T17:26:37.316Z,78.70
2019-05-05T17:29:17.303Z,79.20
2019-05-05T17:32:03.991Z,79.80
2019-05-05T17:34:44.902Z,80.40
2019-05-05T17:37:13.361Z,81.30
2019-05-05T17:39:58.731Z,81.80
2019-05-05T17:45:44.894Z,83.10
2019-05-05T17:54:44.669Z,85.90
2019-05-05T17:57:31.078Z,88.10
2019-05-05T18:00:10.827Z,88.70
2019-05-05T18:02:57.096Z,89.60
2019-05-05T18:06:05.732Z,89.90
2019-05-05T18:08:46.346Z,89.80
2019-05-05T18:11:53.572Z,90.00
2019-05-05T18:17:40.885Z,90.70
2019-05-05T18:20:27.028Z,91.10
2019-05-05T18:23:06.747Z,91.20
2019-05-05T18:25:54.784Z,91.50
2019-05-05T18:28:34.654Z,91.90
2019-05-05T18:31:20.887Z,92.30
2019-05-05T18:34:03.804Z,92.60
2019-05-05T18:36:50.079Z,92.80
2019-05-05T18:39:30.300Z,93.30
2019-05-05T18:42:16.646Z,93.50
2019-05-05T18:47:31.025Z,94.30
2019-05-05T18:49:57.391Z,94.70
2019-05-05T18:52:47.047Z,95.10
2019-05-05T18:55:25.185Z,95.30
2019-05-05T18:57:51.473Z,95.60
2019-05-05T19:00:59.338Z,95.90
2019-05-05T19:03:44.163Z,96.20
2019-05-05T19:06:50.546Z,96.70
2019-05-05T19:09:30.987Z,97.10
2019-05-05T19:11:57.421Z,97.30
2019-05-05T19:14:44.267Z,97.80
2019-05-05T19:17:24.954Z,98.00
2019-05-05T19:20:31.134Z,98.60
2019-05-05T19:23:11.170Z,99.10
2019-05-05T19:25:37.479Z,99.60
2019-05-05T19:28:04.707Z,99.90
2019-05-05T19:30:35.791Z,99.90
2019-05-05T19:33:35.478Z,99.90
2019-05-05T19:36:02.003Z,99.90
2019-05-05T19:38:28.526Z,99.90
2019-05-05T19:41:14.847Z,99.90
2019-05-05T19:44:02.529Z,99.90
2019-05-05T19:46:49.329Z,99.90
2019-05-05T19:49:29.326Z,99.90
2019-05-05T19:52:15.552Z,99.90
2019-05-05T19:54:55.487Z,99.90
2019-05-05T19:57:41.706Z,99.90
2019-05-05T20:00:29.954Z,99.90
2019-05-05T20:03:04.500Z,99.90
2019-05-05T20:05:38.090Z,99.90
2019-05-05T20:08:04.625Z,99.90
2019-05-05T20:10:51.012Z,99.90
2019-05-05T20:13:31.363Z,99.90
2019-05-05T20:16:37.453Z,99.90
2019-05-05T20:19:17.674Z,99.90
2019-05-05T20:22:04.052Z,99.90
2019-05-05T20:24:30.517Z,99.90
2019-05-05T20:27:16.831Z,99.90
2019-05-05T20:29:43.309Z,99.90
2019-05-05T20:35:30.340Z,99.90
2019-05-05T20:41:18.324Z,99.90
2019-05-05T20:43:57.928Z,99.90
2019-05-05T20:46:44.094Z,99.90
2019-05-05T20:49:30.225Z,99.90
2019-05-05T20:52:10.009Z,99.90
2019-05-05T20:54:56.174Z,99.90
2019-05-05T20:57:36.873Z,99.90
2019-05-05T21:00:23.859Z,99.90
2019-05-05T21:02:53.655Z,99.90
2019-05-05T21:07:58.221Z,99.90
2019-05-05T21:10:44.351Z,99.90
2019-05-05T21:13:24.383Z,99.90
2019-05-05T21:16:10.728Z,99.90
2019-05-05T21:18:50.522Z,99.90
2019-05-05T21:24:37.566Z,99.90
2019-05-05T21:27:24.503Z,99.90
2019-05-05T21:30:07.638Z,99.90
2019-05-05T21:38:22.756Z,99.90
2019-05-05T21:41:04.277Z,99.90
2019-05-05T21:43:30.959Z,99.90
2019-05-05T21:46:17.117Z,99.90
2019-05-05T21:48:44.857Z,99.90
2019-05-05T21:57:57.918Z,99.90
2019-05-05T22:01:04.551Z,99.90
2019-05-05T22:03:44.505Z,99.90
2019-05-05T22:06:11.098Z,99.90
2019-05-05T22:08:57.385Z,99.90
2019-05-05T22:11:43.634Z,99.90
2019-05-05T22:14:10.091Z,99.90
2019-05-05T22:16:56.336Z,99.90
2019-05-05T22:22:25.867Z,99.90
2019-05-05T22:25:14.069Z,99.90
2019-05-05T22:27:54.515Z,99.90
2019-05-05T22:30:40.890Z,99.90
2019-05-05T22:33:21.168Z,99.90
2019-05-05T22:36:07.271Z,99.90
2019-05-05T22:38:53.422Z,99.90
2019-05-05T22:41:33.768Z,99.90
2019-05-05T22:44:00.318Z,99.90
2019-05-05T22:46:46.543Z,99.90
2019-05-05T22:49:25.999Z,99.90
2019-05-05T22:52:14.326Z,99.90
2019-05-05T22:54:54.062Z,99.90
2019-05-05T22:57:40.318Z,99.90
2019-05-05T23:00:28.355Z,99.90
2019-05-05T23:03:10.171Z,99.90
2019-05-05T23:05:56.320Z,99.90
2019-05-05T23:08:24.285Z,99.90
2019-05-05T23:11:04.305Z,99.90
2019-05-05T23:13:50.538Z,99.90
2019-05-05T23:19:58.250Z,99.90
2019-05-05T23:22:58.027Z,99.90
2019-05-05T23:28:39.239Z,99.90
2019-05-05T23:31:25.904Z,99.90
2019-05-05T23:34:14.549Z,99.90
2019-05-05T23:36:55.073Z,99.90
2019-05-05T23:39:21.596Z,99.90
2019-05-05T23:42:07.839Z,99.90
2019-05-05T23:44:34.589Z,99.90
2019-05-05T23:47:24.621Z,99.90
2019-05-05T23:50:04.639Z,99.90
2019-05-05T23:52:31.179Z,99.90
2019-05-05T23:55:17.415Z,99.90
2019-05-05T23:57:43.895Z,99.90
